| time (UTC) | temp F | wind direction | speed knots | gust knots | rain 1hr in | rain 24hr in | rain mn in | humidity % | barometer mb |
| 20260507130256 | 56 | 56 | 1.7 | 1.7 | 0.00 | 0.01 | 0.01 | 94 | 1012.3 |
| 20260507125755 | 57 | 72 | 1.7 | 2.6 | 0.00 | 0.01 | 0.01 | 95 | 1012.3 |
| 20260507125252 | 57 | 40 | 1.7 | 1.7 | 0.00 | 0.01 | 0.01 | 95 | 1012.2 |
| 20260507124749 | 57 | 54 | 1.7 | 1.7 | 0.00 | 0.01 | 0.01 | 95 | 1012.4 |
| 20260507124245 | 57 | 55 | 0.9 | 0.9 | 0.00 | 0.01 | 0.01 | 95 | 1012.1 |
| 20260507123744 | 57 | 50 | 1.7 | 2.6 | 0.00 | 0.01 | 0.01 | 95 | 1012.4 |
| 20260507123241 | 57 | 56 | 0.9 | 1.7 | 0.00 | 0.01 | 0.01 | 95 | 1012.2 |
| 20260507122736 | 57 | 332 | 0.9 | 1.7 | 0.00 | 0.01 | 0.01 | 95 | 1012.3 |
| 20260507122232 | 57 | 51 | 0.9 | 0.9 | 0.00 | 0.01 | 0.01 | 95 | 1012.1 |
| 20260507121728 | 57 | 51 | 1.7 | 1.7 | 0.00 | 0.01 | 0.01 | 95 | 1012.2 |
| 20260507121224 | 57 | 351 | 0.0 | 0.0 | 0.00 | 0.01 | 0.01 | 95 | 1012.6 |
| 20260507120720 | 58 | 9 | 0.0 | 0.9 | 0.00 | 0.01 | 0.01 | 95 | 1012.1 |
| 20260507120218 | 57 | 337 | 0.0 | 0.9 | 0.00 | 0.01 | 0.01 | 94 | 1012.1 |
| 20260507115713 | 57 | 5 | 0.9 | 0.9 | 0.00 | 0.01 | 0.01 | 94 | 1012.3 |
| 20260507115209 | 57 | 320 | 0.0 | 0.0 | 0.00 | 0.01 | 0.01 | 94 | 1011.9 |
| 20260507114705 | 57 | 31 | 0.0 | 0.9 | 0.00 | 0.01 | 0.01 | 94 | 1011.9 |
| 20260507114203 | 58 | 7 | 0.0 | 0.0 | 0.00 | 0.01 | 0.01 | 93 | 1012.4 |
| 20260507113700 | 58 | 322 | 0.9 | 0.9 | 0.00 | 0.01 | 0.01 | 93 | 1012.4 |
| 20260507113156 | 58 | 41 | 0.0 | 0.0 | 0.00 | 0.01 | 0.01 | 92 | 1012.2 |
| 20260507112654 | 58 | 3 | 0.9 | 0.9 | 0.00 | 0.01 | 0.01 | 92 | 1012.2 |
| 20260507112151 | 58 | 10 | 0.9 | 0.9 | 0.00 | 0.01 | 0.01 | 91 | 1012.4 |
| 20260507111648 | 58 | 64 | 0.9 | 0.9 | 0.00 | 0.01 | 0.01 | 91 | 1011.9 |
| 20260507111145 | 58 | 55 | 1.7 | 1.7 | 0.00 | 0.01 | 0.01 | 92 | 1012.0 |
| 20260507110641 | 58 | 61 | 0.9 | 1.7 | 0.00 | 0.01 | 0.01 | 94 | 1011.8 |
| 20260507110138 | 59 | 32 | 0.9 | 0.9 | 0.00 | 0.01 | 0.01 | 95 | 1011.8 |
| 20260507105635 | 60 | 65 | 0.9 | 0.9 | 0.00 | 0.01 | 0.01 | 96 | 1011.6 |
| 20260507105131 | 60 | 49 | 0.9 | 0.9 | 0.00 | 0.01 | 0.01 | 95 | 1011.5 |
| 20260507104629 | 60 | 2 | 0.0 | 0.0 | 0.00 | 0.01 | 0.01 | 95 | 1011.2 |
| 20260507104125 | 60 | 15 | 0.9 | 0.9 | 0.00 | 0.01 | 0.01 | 95 | 1011.5 |
| 20260507103621 | 60 | 11 | 0.9 | 0.9 | 0.00 | 0.01 | 0.01 | 95 | 1011.2 |
| 20260507103118 | 60 | 348 | 0.0 | 0.0 | 0.00 | 0.01 | 0.01 | 95 | 1011.4 |
| 20260507102614 | 61 | 332 | 0.0 | 0.9 | 0.00 | 0.01 | 0.01 | 95 | 1011.4 |
| 20260507102110 | 61 | 351 | 0.0 | 0.9 | 0.00 | 0.01 | 0.01 | 95 | 1011.2 |
| 20260507101606 | 62 | 347 | 0.0 | 0.0 | 0.00 | 0.01 | 0.01 | 95 | 1010.9 |
| 20260507101102 | 62 | 309 | 0.9 | 0.9 | 0.00 | 0.01 | 0.01 | 95 | 1010.8 |
| 20260507100600 | 63 | 317 | 0.0 | 0.9 | 0.00 | 0.01 | 0.01 | 95 | 1011.1 |
| 20260507100058 | 63 | 11 | 0.9 | 0.9 | 0.00 | 0.01 | 0.01 | 94 | 1010.8 |
| 20260507095555 | 64 | 341 | 0.9 | 1.7 | 0.00 | 0.01 | 0.01 | 94 | 1010.9 |
| 20260507095052 | 64 | 352 | 1.7 | 1.7 | 0.00 | 0.01 | 0.01 | 94 | 1010.9 |
| 20260507094548 | 64 | 46 | 0.9 | 0.9 | 0.00 | 0.01 | 0.01 | 94 | 1010.6 |
| 20260507094045 | 64 | 52 | 0.9 | 0.9 | 0.00 | 0.01 | 0.01 | 94 | 1010.4 |
| 20260507093543 | 65 | 34 | 0.9 | 0.9 | 0.00 | 0.01 | 0.01 | 95 | 1010.6 |
| 20260507093041 | 66 | 73 | 0.0 | 0.9 | 0.00 | 0.01 | 0.01 | 95 | 1010.4 |
| 20260507092537 | 66 | 325 | 0.0 | 0.0 | 0.00 | 0.01 | 0.01 | 95 | 1010.4 |
| 20260507092034 | 67 | 324 | 0.0 | 0.0 | 0.00 | 0.01 | 0.01 | 95 | 1010.5 |
| 20260507091531 | 66 | 325 | 0.0 | 0.0 | 0.00 | 0.01 | 0.01 | 95 | 1010.4 |
| 20260507091027 | 66 | 325 | 0.0 | 0.0 | 0.00 | 0.01 | 0.01 | 95 | 1010.3 |
| 20260507090523 | 66 | 325 | 0.0 | 0.0 | 0.00 | 0.01 | 0.01 | 94 | 1010.2 |
| 20260507090020 | 66 | 325 | 0.0 | 0.0 | 0.00 | 0.01 | 0.01 | 94 | 1010.2 |
| 20260507085517 | 66 | 325 | 0.0 | 0.0 | 0.00 | 0.01 | 0.01 | 94 | 1010.1 |
| 20260507085014 | 66 | 325 | 0.0 | 0.0 | 0.00 | 0.01 | 0.01 | 94 | 1010.3 |
| 20260507084510 | 66 | 324 | 0.0 | 0.0 | 0.00 | 0.01 | 0.01 | 94 | 1010.4 |
| 20260507084007 | 67 | 325 | 0.0 | 0.9 | 0.00 | 0.01 | 0.01 | 94 | 1010.3 |
| 20260507083503 | 67 | 324 | 0.0 | 0.0 | 0.00 | 0.01 | 0.01 | 94 | 1010.1 |
| 20260507083000 | 67 | 264 | 0.0 | 0.0 | 0.00 | 0.01 | 0.01 | 94 | 1010.2 |
| 20260507082457 | 67 | 327 | 0.0 | 0.0 | 0.00 | 0.01 | 0.01 | 94 | 1010.1 |
| 20260507081953 | 67 | 316 | 0.0 | 0.0 | 0.00 | 0.01 | 0.01 | 94 | 1010.2 |
| 20260507081449 | 67 | 255 | 0.0 | 0.0 | 0.00 | 0.01 | 0.01 | 93 | 1010.2 |
| 20260507080946 | 67 | 356 | 0.0 | 0.9 | 0.00 | 0.01 | 0.01 | 93 | 1010.2 |
| 20260507080442 | 67 | 358 | 0.0 | 0.0 | 0.00 | 0.01 | 0.01 | 93 | 1010.0 |
| 20260507075937 | 67 | 341 | 0.0 | 0.9 | 0.00 | 0.01 | 0.01 | 93 | 1009.9 |
| 20260507075434 | 67 | 229 | 0.0 | 0.9 | 0.00 | 0.01 | 0.01 | 93 | 1010.0 |
| 20260507074931 | 67 | 314 | 0.0 | 0.0 | 0.00 | 0.01 | 0.01 | 93 | 1010.0 |
| 20260507074427 | 67 | 314 | 0.0 | 0.0 | 0.00 | 0.01 | 0.01 | 93 | 1010.1 |
| 20260507073926 | 67 | 287 | 0.0 | 0.0 | 0.00 | 0.01 | 0.01 | 93 | 1010.4 |
| 20260507073421 | 67 | 144 | 0.9 | 1.7 | 0.00 | 0.01 | 0.01 | 93 | 1010.1 |
| 20260507072919 | 67 | 8 | 1.7 | 1.7 | 0.00 | 0.01 | 0.01 | 93 | 1010.0 |
| 20260507072416 | 67 | 258 | 0.0 | 0.0 | 0.00 | 0.01 | 0.01 | 93 | 1010.1 |
| 20260507071914 | 67 | 335 | 0.0 | 0.0 | 0.00 | 0.01 | 0.01 | 93 | 1010.2 |
| 20260507071411 | 67 | 270 | 0.9 | 1.7 | 0.00 | 0.01 | 0.01 | 93 | 1009.9 |
| 20260507070906 | 67 | 8 | 0.0 | 0.9 | 0.00 | 0.01 | 0.01 | 93 | 1009.7 |
| 20260507070404 | 67 | 300 | 0.0 | 0.0 | 0.00 | 0.01 | 0.01 | 93 | 1009.7 |
| 20260507065901 | 67 | 330 | 0.9 | 0.9 | 0.00 | 0.01 | 0.01 | 93 | 1009.6 |
| 20260507065357 | 67 | 248 | 0.0 | 0.9 | 0.00 | 0.01 | 0.01 | 92 | 1009.6 |
| 20260507064854 | 67 | 301 | 0.9 | 0.9 | 0.00 | 0.01 | 0.01 | 92 | 1009.6 |
| 20260507064353 | 67 | 223 | 0.9 | 0.9 | 0.00 | 0.01 | 0.01 | 92 | 1009.4 |
| 20260507063850 | 68 | 308 | 0.0 | 0.0 | 0.00 | 0.01 | 0.01 | 92 | 1009.4 |
| 20260507063347 | 68 | 265 | 0.9 | 0.9 | 0.00 | 0.01 | 0.01 | 91 | 1009.0 |
| 20260507062844 | 68 | 241 | 0.9 | 0.9 | 0.00 | 0.01 | 0.01 | 91 | 1009.0 |
| 20260507062341 | 68 | 267 | 0.9 | 1.7 | 0.00 | 0.01 | 0.01 | 91 | 1009.3 |
| 20260507061839 | 68 | 325 | 0.0 | 0.0 | 0.00 | 0.01 | 0.01 | 90 | 1009.9 |
| 20260507061336 | 68 | 160 | 0.0 | 0.9 | 0.07 | 0.01 | 0.01 | 89 | 1010.3 |
| 20260507060835 | 69 | 210 | 0.9 | 1.7 | 0.07 | 0.01 | 0.01 | 88 | 1010.2 |
| 20260507060331 | 69 | 201 | 2.6 | 3.5 | 0.00 | 0.00 | 0.00 | 87 | 1010.4 |
| 20260507055828 | 69 | 281 | 0.9 | 0.9 | 0.00 | 0.00 | 0.00 | 86 | 1010.2 |
| 20260507055323 | 69 | 259 | 0.0 | 0.9 | 0.00 | 0.00 | 0.00 | 85 | 1010.6 |
| 20260507054820 | 69 | 146 | 1.7 | 1.7 | 0.00 | 0.00 | 0.00 | 85 | 1010.6 |
| 20260507054316 | 69 | 234 | 0.9 | 1.7 | 0.00 | 0.00 | 0.00 | 85 | 1010.8 |
| 20260507053813 | 69 | 233 | 0.9 | 0.9 | 0.00 | 0.00 | 0.00 | 84 | 1010.7 |
| 20260507053311 | 70 | 257 | 0.0 | 0.0 | 0.00 | 0.00 | 0.00 | 83 | 1010.8 |
| 20260507052810 | 70 | 233 | 1.7 | 1.7 | 0.00 | 0.00 | 0.00 | 82 | 1010.7 |
| 20260507052307 | 70 | 155 | 0.9 | 1.7 | 0.00 | 0.00 | 0.00 | 82 | 1010.9 |
| 20260507051804 | 70 | 280 | 0.0 | 0.0 | 0.00 | 0.00 | 0.00 | 81 | 1010.9 |
| 20260507051301 | 70 | 249 | 0.9 | 0.9 | 0.00 | 0.00 | 0.00 | 80 | 1011.1 |
| 20260507050758 | 71 | 223 | 0.9 | 0.9 | 0.00 | 0.00 | 0.00 | 79 | 1011.1 |
| 20260507050254 | 71 | 234 | 0.9 | 0.9 | 0.00 | 0.00 | 0.00 | 79 | 1011.0 |
| 20260507045751 | 71 | 285 | 0.0 | 0.0 | 0.00 | 0.00 | 0.00 | 78 | 1011.3 |
| 20260507045247 | 71 | 241 | 0.9 | 0.9 | 0.00 | 0.00 | 0.00 | 78 | 1011.3 |
| 20260507044745 | 71 | 303 | 0.0 | 0.0 | 0.00 | 0.00 | 0.00 | 78 | 1011.1 |
| 20260507044241 | 71 | 280 | 0.0 | 0.0 | 0.00 | 0.00 | 0.00 | 78 | 1011.2 |
| 20260507043737 | 71 | 275 | 0.0 | 0.0 | 0.00 | 0.00 | 0.00 | 77 | 1010.8 |
| 20260507043234 | 71 | 273 | 0.0 | 0.0 | 0.00 | 0.00 | 0.00 | 77 | 1010.6 |
| 20260507042731 | 71 | 299 | 0.0 | 0.0 | 0.00 | 0.00 | 0.00 | 77 | 1010.8 |
| 20260507042226 | 71 | 281 | 0.9 | 0.9 | 0.00 | 0.00 | 0.00 | 77 | 1010.9 |
| 20260507041724 | 71 | 262 | 0.9 | 0.9 | 0.00 | 0.00 | 0.00 | 77 | 1010.9 |
| 20260507041220 | 71 | 267 | 0.0 | 0.0 | 0.00 | 0.00 | 0.00 | 78 | 1010.7 |
| 20260507040717 | 70 | 287 | 0.0 | 0.0 | 0.00 | 0.00 | 0.00 | 78 | 1011.2 |
| 20260507040213 | 70 | 290 | 0.0 | 0.0 | 0.00 | 0.00 | 0.00 | 78 | 1011.0 |
| 20260507035709 | 70 | 286 | 0.0 | 0.0 | 0.00 | 0.03 | 0.03 | 78 | 1011.2 |
| 20260507035204 | 70 | 293 | 0.0 | 0.0 | 0.00 | 0.03 | 0.03 | 78 | 1011.3 |
| 20260507034702 | 70 | 293 | 0.0 | 0.9 | 0.00 | 0.03 | 0.03 | 78 | 1011.2 |
| 20260507034159 | 70 | 283 | 0.0 | 0.0 | 0.00 | 0.03 | 0.03 | 79 | 1011.3 |
| 20260507033658 | 70 | 283 | 0.0 | 0.0 | 0.00 | 0.03 | 0.03 | 79 | 1011.2 |
| 20260507033154 | 70 | 250 | 0.0 | 0.9 | 0.00 | 0.03 | 0.03 | 79 | 1011.0 |
| 20260507032652 | 70 | 271 | 0.0 | 0.0 | 0.00 | 0.03 | 0.03 | 79 | 1011.1 |
| 20260507032147 | 70 | 265 | 0.0 | 0.0 | 0.00 | 0.03 | 0.03 | 79 | 1011.0 |
| 20260507031645 | 70 | 293 | 0.0 | 0.0 | 0.00 | 0.03 | 0.03 | 79 | 1010.9 |
| 20260507031141 | 69 | 265 | 0.0 | 0.0 | 0.00 | 0.03 | 0.03 | 79 | 1011.1 |
| 20260507030638 | 69 | 285 | 0.0 | 0.0 | 0.00 | 0.03 | 0.03 | 79 | 1011.1 |
| 20260507030136 | 69 | 283 | 0.0 | 0.0 | 0.00 | 0.03 | 0.03 | 79 | 1010.8 |
| 20260507025633 | 69 | 276 | 0.0 | 0.0 | 0.00 | 0.03 | 0.03 | 79 | 1011.1 |
| 20260507025129 | 69 | 220 | 0.9 | 0.9 | 0.00 | 0.03 | 0.03 | 79 | 1011.1 |
| 20260507024628 | 69 | 268 | 0.0 | 0.0 | 0.00 | 0.03 | 0.03 | 79 | 1011.2 |
| 20260507024125 | 69 | 287 | 0.0 | 0.0 | 0.00 | 0.03 | 0.03 | 79 | 1011.2 |
| 20260507023620 | 69 | 284 | 0.0 | 0.0 | 0.00 | 0.03 | 0.03 | 79 | 1011.2 |
| 20260507023118 | 69 | 257 | 0.9 | 0.9 | 0.00 | 0.03 | 0.03 | 79 | 1011.0 |
| 20260507022615 | 69 | 218 | 0.9 | 0.9 | 0.00 | 0.03 | 0.03 | 79 | 1011.3 |
| 20260507022110 | 69 | 302 | 0.0 | 0.0 | 0.00 | 0.03 | 0.03 | 78 | 1011.3 |
| 20260507021606 | 69 | 302 | 0.0 | 0.0 | 0.00 | 0.03 | 0.03 | 78 | 1011.2 |
| 20260507021102 | 69 | 285 | 0.0 | 0.0 | 0.00 | 0.03 | 0.03 | 78 | 1011.5 |
| 20260507020601 | 70 | 315 | 0.0 | 0.0 | 0.00 | 0.03 | 0.03 | 77 | 1011.5 |
| 20260507020057 | 70 | 154 | 0.9 | 1.7 | 0.00 | 0.03 | 0.03 | 77 | 1011.4 |
| 20260507015555 | 70 | 256 | 0.0 | 0.0 | 0.00 | 0.03 | 0.03 | 77 | 1011.6 |
| 20260507015052 | 70 | 256 | 0.0 | 0.0 | 0.00 | 0.03 | 0.03 | 76 | 1011.6 |
| 20260507014549 | 70 | 279 | 0.0 | 0.0 | 0.00 | 0.03 | 0.03 | 77 | 1011.5 |
| 20260507014045 | 70 | 279 | 0.0 | 0.0 | 0.00 | 0.03 | 0.03 | 77 | 1011.7 |
| 20260507013542 | 70 | 284 | 0.0 | 0.0 | 0.00 | 0.03 | 0.03 | 76 | 1011.2 |
| 20260507013039 | 70 | 286 | 0.0 | 0.0 | 0.00 | 0.03 | 0.03 | 76 | 1011.3 |
| 20260507012536 | 70 | 287 | 0.0 | 0.0 | 0.00 | 0.03 | 0.03 | 75 | 1011.3 |
| 20260507012032 | 70 | 286 | 0.0 | 0.0 | 0.00 | 0.03 | 0.03 | 75 | 1011.2 |
| 20260507011530 | 70 | 289 | 0.0 | 0.0 | 0.00 | 0.03 | 0.03 | 75 | 1011.3 |
| 20260507011025 | 71 | 289 | 0.0 | 0.0 | 0.00 | 0.03 | 0.03 | 74 | 1011.3 |
| 20260507010520 | 71 | 289 | 0.0 | 0.0 | 0.00 | 0.03 | 0.03 | 73 | 1011.5 |
| 20260507010017 | 71 | 286 | 0.0 | 0.0 | 0.00 | 0.03 | 0.03 | 72 | 1011.6 |
| 20260507005515 | 71 | 256 | 0.0 | 0.9 | 0.00 | 0.03 | 0.03 | 72 | 1011.5 |
| 20260507005011 | 71 | 285 | 0.0 | 0.0 | 0.00 | 0.03 | 0.03 | 72 | 1011.3 |
| 20260507004508 | 71 | 288 | 0.0 | 0.0 | 0.00 | 0.03 | 0.03 | 72 | 1011.3 |
| 20260507004005 | 72 | 272 | 0.0 | 0.0 | 0.00 | 0.03 | 0.03 | 72 | 1011.3 |
| 20260507003500 | 72 | 267 | 0.9 | 0.9 | 0.00 | 0.03 | 0.03 | 71 | 1011.4 |
| 20260507002955 | 71 | 286 | 0.0 | 0.0 | 0.00 | 0.03 | 0.03 | 71 | 1011.5 |
| 20260507002453 | 72 | 294 | 0.0 | 0.0 | 0.00 | 0.03 | 0.03 | 71 | 1011.5 |
| 20260507001949 | 72 | 278 | 0.0 | 0.0 | 0.00 | 0.03 | 0.03 | 71 | 1011.1 |
| 20260507001446 | 72 | 298 | 0.0 | 0.0 | 0.00 | 0.03 | 0.03 | 71 | 1011.1 |
| 20260507000943 | 72 | 275 | 0.0 | 0.0 | 0.00 | 0.03 | 0.03 | 70 | 1011.2 |
| 20260507000438 | 72 | 231 | 0.0 | 0.9 | 0.00 | 0.03 | 0.03 | 70 | 1011.0 |
| 20260506235934 | 72 | 90 | 0.9 | 1.7 | 0.00 | 0.03 | 0.03 | 69 | 1011.2 |
| 20260506235432 | 72 | 164 | 0.9 | 0.9 | 0.00 | 0.03 | 0.03 | 70 | 1011.1 |
| 20260506234927 | 72 | 307 | 0.0 | 0.0 | 0.00 | 0.03 | 0.03 | 70 | 1011.1 |
| 20260506234425 | 72 | 293 | 0.0 | 0.0 | 0.00 | 0.03 | 0.03 | 70 | 1011.1 |
| 20260506233923 | 73 | 313 | 0.0 | 0.0 | 0.00 | 0.03 | 0.03 | 70 | 1010.8 |
| 20260506233419 | 73 | 280 | 0.0 | 0.0 | 0.00 | 0.03 | 0.03 | 69 | 1010.9 |
| 20260506232910 | 72 | 286 | 0.0 | 0.0 | 0.00 | 0.03 | 0.03 | 70 | 1010.9 |
| 20260506232407 | 73 | 302 | 0.0 | 0.0 | 0.00 | 0.03 | 0.03 | 70 | 1010.8 |
| 20260506231903 | 73 | 272 | 0.0 | 0.0 | 0.00 | 0.03 | 0.03 | 70 | 1010.8 |
| 20260506231400 | 73 | 262 | 0.0 | 0.0 | 0.00 | 0.03 | 0.03 | 69 | 1010.7 |
| 20260506230857 | 73 | 267 | 0.0 | 0.0 | 0.00 | 0.03 | 0.03 | 69 | 1010.7 |
| 20260506230354 | 73 | 280 | 0.0 | 0.0 | 0.00 | 0.03 | 0.03 | 69 | 1010.6 |
| 20260506225850 | 73 | 296 | 0.0 | 0.0 | 0.00 | 0.03 | 0.03 | 70 | 1010.7 |
| 20260506225348 | 73 | 319 | 0.0 | 0.0 | 0.00 | 0.03 | 0.03 | 68 | 1010.8 |
| 20260506224845 | 74 | 320 | 0.0 | 0.0 | 0.00 | 0.03 | 0.03 | 68 | 1010.8 |
| 20260506224342 | 74 | 231 | 0.0 | 0.9 | 0.00 | 0.03 | 0.03 | 68 | 1010.7 |
| 20260506223838 | 74 | 292 | 0.0 | 0.0 | 0.00 | 0.03 | 0.03 | 67 | 1010.8 |
| 20260506223333 | 74 | 306 | 0.0 | 0.0 | 0.00 | 0.03 | 0.03 | 67 | 1010.9 |
| 20260506222830 | 74 | 303 | 0.0 | 0.0 | 0.00 | 0.03 | 0.03 | 66 | 1010.8 |
| 20260506222326 | 75 | 220 | 0.0 | 0.0 | 0.00 | 0.03 | 0.03 | 65 | 1010.8 |
| 20260506221824 | 75 | 292 | 0.0 | 0.0 | 0.00 | 0.03 | 0.03 | 65 | 1010.8 |
| 20260506221321 | 75 | 299 | 0.0 | 0.0 | 0.00 | 0.03 | 0.03 | 66 | 1011.1 |
| 20260506220819 | 75 | 326 | 0.0 | 0.0 | 0.00 | 0.03 | 0.03 | 66 | 1011.0 |
| 20260506220319 | 75 | 317 | 0.0 | 0.0 | 0.00 | 0.03 | 0.03 | 65 | 1011.1 |
| 20260506215816 | 75 | 267 | 0.9 | 0.9 | 0.00 | 0.03 | 0.03 | 64 | 1010.8 |
| 20260506215312 | 75 | 325 | 0.0 | 0.0 | 0.00 | 0.03 | 0.03 | 66 | 1010.8 |
| 20260506214808 | 75 | 235 | 0.9 | 1.7 | 0.00 | 0.03 | 0.03 | 64 | 1010.8 |
| 20260506214305 | 75 | 284 | 0.9 | 1.7 | 0.00 | 0.03 | 0.03 | 64 | 1010.9 |
| 20260506213803 | 75 | 310 | 0.0 | 0.9 | 0.00 | 0.03 | 0.03 | 66 | 1010.8 |
| 20260506213300 | 75 | 255 | 0.0 | 0.9 | 0.00 | 0.03 | 0.03 | 64 | 1010.8 |
| 20260506212757 | 75 | 298 | 0.0 | 0.0 | 0.00 | 0.03 | 0.03 | 64 | 1010.8 |
| 20260506212253 | 75 | 291 | 0.0 | 0.0 | 0.00 | 0.03 | 0.03 | 65 | 1010.9 |
| 20260506211748 | 75 | 328 | 0.0 | 0.9 | 0.00 | 0.03 | 0.03 | 66 | 1010.9 |
| 20260506211245 | 75 | 280 | 0.0 | 0.0 | 0.00 | 0.03 | 0.03 | 65 | 1010.6 |
| 20260506210742 | 75 | 286 | 0.0 | 0.9 | 0.00 | 0.03 | 0.03 | 65 | 1010.9 |
| 20260506210239 | 75 | 344 | 0.0 | 0.0 | 0.00 | 0.03 | 0.03 | 63 | 1010.7 |
| 20260506205736 | 75 | 304 | 0.0 | 0.0 | 0.00 | 0.03 | 0.03 | 63 | 1010.4 |
| 20260506205232 | 75 | 244 | 0.9 | 0.9 | 0.00 | 0.03 | 0.03 | 63 | 1010.6 |
| 20260506204729 | 75 | 181 | 1.7 | 2.6 | 0.00 | 0.03 | 0.03 | 63 | 1010.6 |
| 20260506204226 | 75 | 254 | 2.6 | 3.5 | 0.00 | 0.03 | 0.03 | 63 | 1010.4 |
| 20260506203724 | 75 | 265 | 1.7 | 1.7 | 0.00 | 0.03 | 0.03 | 63 | 1010.2 |
| 20260506203221 | 75 | 218 | 0.9 | 0.9 | 0.00 | 0.03 | 0.03 | 63 | 1009.9 |
| 20260506202719 | 75 | 271 | 1.7 | 2.6 | 0.00 | 0.03 | 0.03 | 64 | 1010.1 |
| 20260506202215 | 75 | 138 | 1.7 | 2.6 | 0.00 | 0.03 | 0.03 | 65 | 1010.1 |
| 20260506201712 | 75 | 275 | 0.9 | 0.9 | 0.00 | 0.03 | 0.03 | 65 | 1010.2 |
| 20260506201208 | 75 | 283 | 2.6 | 2.6 | 0.00 | 0.03 | 0.03 | 64 | 1010.4 |
| 20260506200705 | 74 | 207 | 1.7 | 1.7 | 0.00 | 0.03 | 0.03 | 65 | 1010.5 |
| 20260506200202 | 74 | 198 | 1.7 | 2.6 | 0.00 | 0.03 | 0.03 | 65 | 1010.4 |
| 20260506195658 | 74 | 252 | 2.6 | 3.5 | 0.00 | 0.03 | 0.03 | 66 | 1010.4 |
| 20260506195155 | 74 | 188 | 1.7 | 2.6 | 0.00 | 0.03 | 0.03 | 65 | 1010.6 |
| 20260506194652 | 74 | 185 | 1.7 | 2.6 | 0.00 | 0.03 | 0.03 | 65 | 1010.8 |
| 20260506194148 | 74 | 220 | 1.7 | 1.7 | 0.00 | 0.03 | 0.03 | 66 | 1010.8 |
| 20260506193646 | 74 | 265 | 0.9 | 1.7 | 0.00 | 0.03 | 0.03 | 66 | 1011.0 |
| 20260506193143 | 74 | 282 | 0.0 | 0.0 | 0.00 | 0.03 | 0.03 | 68 | 1011.3 |
| 20260506192640 | 73 | 228 | 2.6 | 2.6 | 0.00 | 0.03 | 0.03 | 67 | 1011.3 |
| 20260506192136 | 73 | 214 | 1.7 | 2.6 | 0.00 | 0.03 | 0.03 | 68 | 1011.6 |
| 20260506191633 | 73 | 232 | 2.6 | 2.6 | 0.00 | 0.03 | 0.03 | 67 | 1011.8 |
| 20260506191129 | 73 | 222 | 1.7 | 1.7 | 0.00 | 0.03 | 0.03 | 69 | 1011.7 |
| 20260506190626 | 73 | 169 | 1.7 | 1.7 | 0.00 | 0.03 | 0.03 | 70 | 1011.8 |
| 20260506190123 | 72 | 216 | 0.9 | 0.9 | 0.00 | 0.03 | 0.03 | 72 | 1012.0 |
| 20260506185620 | 71 | 275 | 0.9 | 0.9 | 0.00 | 0.03 | 0.03 | 74 | 1012.2 |
| 20260506185116 | 71 | 307 | 0.0 | 0.0 | 0.00 | 0.03 | 0.03 | 78 | 1012.3 |
| 20260506184614 | 71 | 313 | 0.0 | 0.0 | 0.00 | 0.03 | 0.03 | 78 | 1012.4 |
| 20260506184111 | 71 | 308 | 0.0 | 0.0 | 0.05 | 0.03 | 0.03 | 77 | 1012.4 |
| 20260506183608 | 73 | 321 | 0.0 | 0.0 | 0.05 | 0.03 | 0.03 | 76 | 1012.3 |
| 20260506183103 | 74 | 286 | 0.0 | 0.0 | 0.00 | 0.02 | 0.02 | 71 | 1012.5 |
| 20260506182601 | 74 | 260 | 0.9 | 0.9 | 0.00 | 0.02 | 0.02 | 68 | 1012.7 |
| 20260506182058 | 74 | 196 | 1.7 | 2.6 | 0.00 | 0.02 | 0.02 | 65 | 1012.3 |
| 20260506181556 | 74 | 129 | 1.7 | 1.7 | 0.00 | 0.02 | 0.02 | 66 | 1012.4 |
| 20260506181053 | 73 | 287 | 0.9 | 1.7 | 0.00 | 0.02 | 0.02 | 68 | 1012.4 |
| 20260506180549 | 73 | 209 | 1.7 | 1.7 | 0.00 | 0.02 | 0.02 | 68 | 1012.3 |
| 20260506180046 | 73 | 225 | 0.9 | 0.9 | 0.00 | 0.02 | 0.02 | 69 | 1012.3 |
| 20260506175542 | 73 | 184 | 1.7 | 1.7 | 0.00 | 0.02 | 0.02 | 68 | 1012.3 |
| 20260506175039 | 72 | 179 | 2.6 | 3.5 | 0.00 | 0.02 | 0.02 | 69 | 1012.3 |
| 20260506174538 | 72 | 217 | 1.7 | 2.6 | 0.00 | 0.02 | 0.02 | 70 | 1012.4 |
| 20260506174033 | 72 | 154 | 1.7 | 2.6 | 0.00 | 0.02 | 0.02 | 70 | 1012.5 |
| 20260506173531 | 72 | 202 | 1.7 | 1.7 | 0.00 | 0.02 | 0.02 | 71 | 1012.6 |
| 20260506173028 | 71 | 202 | 2.6 | 3.5 | 0.00 | 0.02 | 0.02 | 71 | 1012.5 |
| 20260506172525 | 71 | 203 | 3.5 | 5.2 | 0.00 | 0.02 | 0.02 | 72 | 1012.7 |
| 20260506172021 | 71 | 195 | 2.6 | 2.6 | 0.00 | 0.02 | 0.02 | 72 | 1012.6 |
| 20260506171519 | 70 | 218 | 2.6 | 3.5 | 0.00 | 0.02 | 0.02 | 75 | 1012.7 |
| 20260506171017 | 69 | 188 | 2.6 | 2.6 | 0.00 | 0.02 | 0.02 | 76 | 1012.8 |
| 20260506170514 | 69 | 186 | 1.7 | 2.6 | 0.00 | 0.02 | 0.02 | 77 | 1013.1 |
| 20260506170006 | 69 | 157 | 2.6 | 2.6 | 0.00 | 0.02 | 0.02 | 77 | 1013.3 |
| 20260506165504 | 69 | 254 | 1.7 | 1.7 | 0.00 | 0.02 | 0.02 | 78 | 1013.5 |
| 20260506164959 | 69 | 183 | 1.7 | 2.6 | 0.00 | 0.02 | 0.02 | 78 | 1013.4 |
| 20260506164456 | 68 | 259 | 2.6 | 2.6 | 0.00 | 0.02 | 0.02 | 78 | 1013.4 |
| 20260506163954 | 68 | 245 | 1.7 | 2.6 | 0.00 | 0.02 | 0.02 | 79 | 1013.4 |
| 20260506163449 | 68 | 218 | 1.7 | 1.7 | 0.00 | 0.02 | 0.02 | 79 | 1013.5 |
| 20260506162944 | 68 | 199 | 1.7 | 1.7 | 0.00 | 0.02 | 0.02 | 79 | 1013.6 |
| 20260506162442 | 68 | 230 | 1.7 | 1.7 | 0.00 | 0.02 | 0.02 | 79 | 1013.6 |
| 20260506161939 | 68 | 246 | 0.9 | 0.9 | 0.00 | 0.02 | 0.02 | 79 | 1013.8 |
| 20260506161437 | 68 | 240 | 2.6 | 2.6 | 0.00 | 0.02 | 0.02 | 79 | 1013.6 |
| 20260506160934 | 67 | 258 | 0.9 | 0.9 | 0.00 | 0.02 | 0.02 | 81 | 1013.7 |
| 20260506160431 | 67 | 177 | 0.9 | 1.7 | 0.00 | 0.02 | 0.02 | 84 | 1014.1 |
| 20260506155929 | 67 | 305 | 0.0 | 0.0 | 0.07 | 0.02 | 0.02 | 83 | 1014.1 |
| 20260506155427 | 67 | 286 | 0.0 | 0.9 | 0.14 | 0.02 | 0.02 | 81 | 1014.3 |
| 20260506153554 | 68 | 178 | 1.7 | 1.7 | 0.00 | 0.00 | 0.00 | 77 | 1014.3 |
| 20260506153051 | 68 | 240 | 1.7 | 2.6 | 0.00 | 0.00 | 0.00 | 79 | 1014.4 |
| 20260506152548 | 69 | 249 | 0.9 | 0.9 | 0.00 | 0.00 | 0.00 | 78 | 1014.7 |
| 20260506152046 | 69 | 195 | 1.7 | 3.5 | 0.00 | 0.00 | 0.00 | 75 | 1014.6 |
| 20260506151544 | 70 | 243 | 1.7 | 2.6 | 0.00 | 0.00 | 0.00 | 73 | 1014.3 |
| 20260506151041 | 70 | 276 | 0.9 | 1.7 | 0.00 | 0.00 | 0.00 | 71 | 1014.5 |
| 20260506150537 | 69 | 255 | 2.6 | 2.6 | 0.00 | 0.00 | 0.00 | 72 | 1014.3 |
| 20260506150034 | 69 | 207 | 3.5 | 6.1 | 0.00 | 0.00 | 0.00 | 73 | 1014.3 |
| 20260506145531 | 69 | 257 | 2.6 | 2.6 | 0.00 | 0.00 | 0.00 | 73 | 1014.3 |
| 20260506145028 | 69 | 191 | 2.6 | 2.6 | 0.00 | 0.00 | 0.00 | 74 | 1014.5 |
| 20260506144525 | 69 | 228 | 0.9 | 1.7 | 0.00 | 0.00 | 0.00 | 74 | 1014.4 |
| 20260506144022 | 68 | 236 | 1.7 | 1.7 | 0.00 | 0.00 | 0.00 | 75 | 1014.3 |
| 20260506143520 | 68 | 247 | 0.9 | 1.7 | 0.00 | 0.00 | 0.00 | 76 | 1014.0 |
| 20260506143018 | 68 | 188 | 3.5 | 5.2 | 0.00 | 0.00 | 0.00 | 76 | 1014.0 |
| 20260506142515 | 68 | 158 | 1.7 | 2.6 | 0.00 | 0.00 | 0.00 | 78 | 1014.2 |
| 20260506142013 | 68 | 127 | 3.5 | 6.1 | 0.00 | 0.00 | 0.00 | 77 | 1014.3 |
| 20260506141511 | 68 | 258 | 0.0 | 0.9 | 0.00 | 0.00 | 0.00 | 74 | 1014.6 |
| 20260506141009 | 68 | 265 | 0.9 | 0.9 | 0.00 | 0.00 | 0.00 | 74 | 1014.5 |
| 20260506140506 | 68 | 324 | 0.0 | 0.9 | 0.00 | 0.00 | 0.00 | 73 | 1014.3 |
| 20260506140003 | 68 | 285 | 0.9 | 0.9 | 0.00 | 0.00 | 0.00 | 74 | 1014.1 |
| 20260506135500 | 68 | 174 | 2.6 | 3.5 | 0.00 | 0.00 | 0.00 | 73 | 1014.1 |
| 20260506134956 | 68 | 175 | 1.7 | 1.7 | 0.00 | 0.00 | 0.00 | 73 | 1014.1 |
| 20260506134452 | 68 | 293 | 1.7 | 2.6 | 0.00 | 0.00 | 0.00 | 73 | 1014.1 |
| 20260506133949 | 68 | 185 | 2.6 | 3.5 | 0.00 | 0.00 | 0.00 | 72 | 1014.2 |
| 20260506133446 | 69 | 219 | 1.7 | 2.6 | 0.00 | 0.00 | 0.00 | 72 | 1014.2 |
| 20260506132943 | 68 | 228 | 2.6 | 3.5 | 0.00 | 0.00 | 0.00 | 72 | 1014.1 |
| 20260506132440 | 69 | 231 | 3.5 | 5.2 | 0.00 | 0.00 | 0.00 | 72 | 1014.2 |
| 20260506131937 | 68 | 200 | 5.2 | 7.0 | 0.00 | 0.00 | 0.00 | 72 | 1014.1 |
| 20260506131434 | 69 | 234 | 2.6 | 3.5 | 0.00 | 0.00 | 0.00 | 72 | 1014.1 |
| 20260506130931 | 68 | 219 | 2.6 | 3.5 | 0.00 | 0.00 | 0.00 | 72 | 1014.3 |